Route Details

Aircraft Information
Group: North America Fleet
Types: B738, B752, B762, B763
Route Data
Distance: 468nm
Duration: 1h 44m
Origin METAR: KHSV 010453Z 35007KT 10SM OVC007 03/02 A3024 RMK AO2 SLP242 T00330022
Dest. METAR: KLAL 010535Z AUTO 00000KT 10SM SCT055 17/16 A3019 RMK AO2 T01680160
Freight Data
(for Feb 1, 2023)
Load Factor:
75%
Manifested Cargo: 80,782lbs
Financial History
Total Freight: 125,683lbs
Average Load: 0lbs/flt
Fuel Used: 25,398lbs
Avg. Fuel Used: 0lbs/flt
Fuel Expense: $12,951
Avg. Fuel Expense: $0
Avg. Fuel Cost: $0/lbs
Total Gross Income: $309,180
Pilot Pay: $508
Total Expenses: $60,204
Total Revenue: $234,808
Average Revenue: $0

Capitol Logistics 436




KHSV
Huntsville International Airport
Huntsville, Alabama
KLAL
Lakeland Linder Regional Airport
Lakeland, Florida

Activity Log

Date Flight Route Aircraft Duration
11/30/2022 CPX436 DCT RHETT DCT MGM DCT ACORI MAATY4 B752 1h 33m
08/18/2022 CPX436 DCT DCU DCT VLKNN Q139 MGMRY DCT ACORI MAATY3 B763 1h 54m